Time;durP1;ratioP1;P1;durP2;ratioP2;P2;SDS_P1;SDS_P2;PMS_P1;PMS_P2;Temp;Humidity;BMP_temperature;BMP_pressure;BME280_temperature;BME280_humidity;BME280_pressure;Samples;Min_cycle;Max_cycle;Signal;HPM_P1;HPM_P2
2024/04/17 00:01:49;;;;;;;1.25;1.00;;;8.80;71.70;;;;;;5365291;26;111214;-48
2024/04/17 00:04:15;;;;;;;1.27;0.90;;;8.90;71.60;;;;;;5365449;26;110554;-48
2024/04/17 00:06:40;;;;;;;2.33;0.80;;;8.90;71.20;;;;;;5366155;26;110584;-48
2024/04/17 00:09:06;;;;;;;1.05;0.80;;;8.80;71.30;;;;;;5366944;26;110575;-48
2024/04/17 00:11:32;;;;;;;1.13;0.80;;;8.60;72.00;;;;;;5365704;26;111047;-48
2024/04/17 00:13:57;;;;;;;0.70;0.65;;;8.70;71.60;;;;;;5365097;26;110423;-48
2024/04/17 00:16:23;;;;;;;0.63;0.63;;;8.80;71.70;;;;;;5366294;26;110371;-48
2024/04/17 00:18:48;;;;;;;1.55;0.70;;;8.80;71.30;;;;;;5366390;26;110546;-48
2024/04/17 00:21:14;;;;;;;0.82;0.80;;;8.70;71.20;;;;;;5365794;26;111075;-48
2024/04/17 00:23:40;;;;;;;1.60;0.70;;;8.80;71.40;;;;;;5365202;26;110655;-48
2024/04/17 00:26:06;;;;;;;1.23;0.90;;;8.90;71.40;;;;;;5366387;26;110646;-48
2024/04/17 00:28:31;;;;;;;1.13;0.70;;;8.80;71.30;;;;;;5366441;26;110744;-48
2024/04/17 00:30:57;;;;;;;3.05;0.73;;;8.70;72.00;;;;;;5365214;26;112682;-48
2024/04/17 00:33:24;;;;;;;1.33;0.80;;;8.80;71.70;;;;;;5365265;26;110607;-48
2024/04/17 00:35:49;;;;;;;1.40;1.00;;;8.80;71.50;;;;;;5366127;26;111208;-48
2024/04/17 00:38:15;;;;;;;2.17;1.00;;;8.80;71.60;;;;;;5366328;26;110513;-48
2024/04/17 00:40:41;;;;;;;1.27;0.93;;;8.80;71.60;;;;;;5365125;26;111144;-48
2024/04/17 00:43:06;;;;;;;0.60;0.60;;;8.80;71.60;;;;;;5365673;26;110930;-48
2024/04/17 00:45:45;;;;;;;1.30;0.77;;;8.80;71.40;;;;;;5366431;26;110610;-48
2024/04/17 00:48:13;;;;;;;3.10;0.80;;;8.60;72.20;;;;;;5366417;26;110558;-48
2024/04/17 00:50:45;;;;;;;0.82;0.82;;;8.70;71.70;;;;;;5365086;26;111741;-48
2024/04/17 00:53:13;;;;;;;1.27;1.00;;;8.50;72.60;;;;;;5364913;26;110531;-48
2024/04/17 00:55:39;;;;;;;0.82;0.70;;;8.50;72.00;;;;;;5365246;26;110540;-48
2024/04/17 00:58:06;;;;;;;2.60;0.80;;;8.70;72.20;;;;;;5365865;26;110605;-48
2024/04/17 01:00:32;;;;;;;0.80;0.70;;;8.90;71.30;;;;;;5365176;26;113049;-48
2024/04/17 01:02:58;;;;;;;1.25;1.00;;;8.80;71.40;;;;;;5364835;26;111541;-48
2024/04/17 01:05:24;;;;;;;2.00;0.98;;;8.80;70.80;;;;;;5365635;26;111013;-48
2024/04/17 01:07:50;;;;;;;1.48;0.90;;;8.80;70.90;;;;;;5366265;26;110595;-48
2024/04/17 01:10:15;;;;;;;1.05;0.80;;;8.80;71.10;;;;;;5364910;26;113332;-49
2024/04/17 01:12:41;;;;;;;2.33;0.75;;;8.80;71.00;;;;;;5364904;26;111745;-48
2024/04/17 01:15:09;;;;;;;0.73;0.73;;;8.80;71.20;;;;;;5365765;26;110578;-48
2024/04/17 01:17:36;;;;;;;0.68;0.68;;;8.80;71.30;;;;;;5365774;26;110582;-48
2024/04/17 01:20:02;;;;;;;2.22;0.70;;;8.70;71.40;;;;;;5363131;26;111215;-48
2024/04/17 01:22:28;;;;;;;1.02;0.70;;;8.70;71.30;;;;;;5364449;26;110575;-48
2024/04/17 01:24:53;;;;;;;1.48;0.70;;;8.80;70.50;;;;;;5365539;26;111216;-48
2024/04/17 01:27:19;;;;;;;1.50;0.80;;;8.70;70.40;;;;;;5365788;26;110838;-48
2024/04/17 01:29:45;;;;;;;2.15;0.85;;;8.70;70.60;;;;;;5364892;26;111157;-48
2024/04/17 01:32:10;;;;;;;1.42;0.80;;;8.70;70.60;;;;;;5364708;26;111356;-50
2024/04/17 01:34:36;;;;;;;2.55;0.80;;;8.70;70.60;;;;;;5365840;26;110809;-48
2024/04/17 01:37:02;;;;;;;1.27;0.93;;;8.50;70.80;;;;;;5363705;26;110720;-48
2024/04/17 01:39:27;;;;;;;2.33;0.85;;;8.60;70.60;;;;;;5364598;26;111716;-48
2024/04/17 01:41:53;;;;;;;0.75;0.75;;;8.60;70.70;;;;;;5364034;26;110608;-48
2024/04/17 01:44:19;;;;;;;1.27;0.90;;;8.50;70.90;;;;;;5365495;26;110506;-48
2024/04/17 01:46:44;;;;;;;1.90;1.20;;;8.40;71.00;;;;;;5365678;26;110473;-48
2024/04/17 01:49:10;;;;;;;1.40;1.30;;;8.60;71.20;;;;;;5364138;26;111077;-48
2024/04/17 01:51:36;;;;;;;1.17;0.95;;;8.50;70.90;;;;;;5364442;26;110352;-47
2024/04/17 01:54:01;;;;;;;2.88;1.30;;;8.30;71.80;;;;;;5365258;26;110556;-48
2024/04/17 01:56:27;;;;;;;1.75;1.30;;;8.30;72.00;;;;;;5365401;26;110516;-48
2024/04/17 01:58:53;;;;;;;2.03;1.90;;;8.40;72.00;;;;;;5364216;26;112463;-48
2024/04/17 02:01:18;;;;;;;2.88;1.27;;;8.40;71.70;;;;;;5364328;26;110921;-48
2024/04/17 02:03:44;;;;;;;2.15;1.38;;;8.50;71.70;;;;;;5365353;26;110768;-48
2024/04/17 02:06:10;;;;;;;1.83;1.38;;;8.50;71.50;;;;;;5364801;26;111090;-48
2024/04/17 02:08:35;;;;;;;2.95;1.30;;;8.50;71.60;;;;;;5364231;26;111515;-48
2024/04/17 02:11:03;;;;;;;2.05;1.60;;;8.60;71.40;;;;;;5364056;26;110469;-48
2024/04/17 02:13:29;;;;;;;2.40;1.67;;;8.50;71.00;;;;;;5365338;26;110589;-48
2024/04/17 02:16:00;;;;;;;1.73;1.58;;;8.60;71.30;;;;;;5365388;26;111231;-48
2024/04/17 02:18:26;;;;;;;1.90;1.50;;;8.60;71.00;;;;;;5374239;26;111149;-48
2024/04/17 02:20:52;;;;;;;2.08;1.63;;;8.50;71.40;;;;;;5384697;25;112159;-49
2024/04/17 02:23:17;;;;;;;1.60;1.50;;;8.60;72.10;;;;;;5374754;26;110774;-48
2024/04/17 02:25:43;;;;;;;2.95;1.42;;;8.70;71.30;;;;;;5394505;26;110912;-48
2024/04/17 02:28:08;;;;;;;1.50;1.40;;;8.70;71.70;;;;;;5382357;26;113522;-48
2024/04/17 02:30:34;;;;;;;2.28;1.52;;;8.60;71.40;;;;;;5370307;26;110727;-48
2024/04/17 02:33:00;;;;;;;1.42;1.33;;;8.60;71.80;;;;;;5388604;26;110730;-48
2024/04/17 02:35:25;;;;;;;1.85;1.73;;;8.60;71.70;;;;;;5365291;26;110702;-49
2024/04/17 02:37:51;;;;;;;1.63;1.48;;;8.50;72.30;;;;;;5371068;26;111925;-48
2024/04/17 02:40:17;;;;;;;2.75;1.63;;;8.60;73.10;;;;;;5361965;26;114402;-48
2024/04/17 02:42:42;;;;;;;2.28;1.70;;;8.50;72.90;;;;;;5363304;26;113670;-48
2024/04/17 02:45:08;;;;;;;2.65;2.00;;;8.50;73.20;;;;;;5364903;26;110707;-48
2024/04/17 02:47:34;;;;;;;1.90;1.80;;;8.50;72.30;;;;;;5364038;26;111175;-48
2024/04/17 02:49:59;;;;;;;2.65;1.52;;;8.30;72.80;;;;;;5363561;26;110860;-48
2024/04/17 02:52:25;;;;;;;2.45;1.40;;;8.30;72.90;;;;;;5364587;26;110441;-48
2024/04/17 02:54:50;;;;;;;3.53;1.80;;;8.20;73.50;;;;;;5363646;26;111344;-48
2024/04/17 02:57:16;;;;;;;2.22;1.30;;;8.10;73.70;;;;;;5363610;26;111338;-48
2024/04/17 02:59:42;;;;;;;2.38;1.50;;;8.10;73.30;;;;;;5361995;26;111407;-48
2024/04/17 03:02:07;;;;;;;2.25;1.50;;;8.10;74.20;;;;;;5364417;26;111340;-48
2024/04/17 03:04:33;;;;;;;2.00;1.70;;;8.30;74.10;;;;;;5364717;26;110639;-48
2024/04/17 03:06:59;;;;;;;1.63;1.52;;;8.30;74.20;;;;;;5363181;26;111104;-48
2024/04/17 03:09:24;;;;;;;2.22;1.65;;;8.30;73.80;;;;;;5363595;26;111586;-48
2024/04/17 03:11:50;;;;;;;1.60;1.50;;;8.30;73.20;;;;;;5364637;26;110902;-48
2024/04/17 03:14:16;;;;;;;2.10;1.70;;;8.30;72.80;;;;;;5364355;26;110606;-48
2024/04/17 03:16:42;;;;;;;3.75;1.75;;;8.40;72.60;;;;;;5363409;26;112416;-48
2024/04/17 03:19:07;;;;;;;3.03;1.63;;;8.40;72.80;;;;;;5359759;26;113335;-48
2024/04/17 03:21:33;;;;;;;1.63;1.50;;;8.40;71.80;;;;;;5363963;26;111119;-48
2024/04/17 03:23:58;;;;;;;1.65;1.55;;;8.30;72.20;;;;;;5364518;26;111293;-48
2024/04/17 03:26:24;;;;;;;2.58;1.70;;;8.20;72.30;;;;;;5363090;26;112303;-48
2024/04/17 03:28:50;;;;;;;1.42;1.30;;;8.10;73.00;;;;;;5362983;26;110494;-48
2024/04/17 03:31:15;;;;;;;2.97;1.63;;;8.00;73.40;;;;;;5363791;26;110564;-48
2024/04/17 03:33:41;;;;;;;2.85;1.40;;;8.00;73.50;;;;;;5364086;26;110523;-47
2024/04/17 03:36:08;;;;;;;1.67;1.58;;;8.00;73.80;;;;;;5363130;26;111106;-48
2024/04/17 03:38:33;;;;;;;2.08;1.63;;;8.10;73.90;;;;;;5362509;26;110703;-48
2024/04/17 03:40:59;;;;;;;2.53;1.67;;;8.10;74.50;;;;;;5363698;26;110648;-48
2024/04/17 03:43:25;;;;;;;1.80;1.70;;;8.10;73.90;;;;;;5363633;26;112982;-48
2024/04/17 03:45:50;;;;;;;3.17;2.20;;;8.20;73.60;;;;;;5362824;26;111350;-48
2024/04/17 03:48:16;;;;;;;1.75;1.65;;;8.20;73.60;;;;;;5362473;26;111895;-48
2024/04/17 03:50:41;;;;;;;2.35;1.80;;;8.20;73.30;;;;;;5363617;26;110891;-48
2024/04/17 03:53:07;;;;;;;3.75;1.83;;;8.30;73.10;;;;;;5363663;26;110629;-48
2024/04/17 03:55:33;;;;;;;2.92;1.90;;;8.30;72.90;;;;;;5360855;26;112439;-48
2024/04/17 03:57:58;;;;;;;2.80;1.70;;;8.10;73.00;;;;;;5362339;26;111982;-48
2024/04/17 04:00:24;;;;;;;1.80;1.70;;;8.10;73.20;;;;;;5363273;26;110490;-48
2024/04/17 04:02:50;;;;;;;2.20;1.85;;;7.60;74.20;;;;;;5363648;26;110452;-48
2024/04/17 04:05:16;;;;;;;2.70;1.70;;;7.30;76.00;;;;;;5362150;26;111374;-48
2024/04/17 04:07:41;;;;;;;2.20;1.90;;;7.40;75.80;;;;;;5361987;26;110633;-48
2024/04/17 04:10:07;;;;;;;2.20;1.80;;;7.50;75.70;;;;;;5363035;26;110502;-48
2024/04/17 04:12:32;;;;;;;2.33;2.10;;;7.60;74.80;;;;;;5363422;26;110585;-49
2024/04/17 04:14:58;;;;;;;2.17;1.88;;;7.60;74.90;;;;;;5362292;26;111551;-48
2024/04/17 04:17:24;;;;;;;7.47;1.92;;;7.60;74.70;;;;;;5361683;26;111397;-48
2024/04/17 04:19:49;;;;;;;2.72;1.60;;;7.60;74.50;;;;;;5362746;26;110470;-48
2024/04/17 04:22:15;;;;;;;4.68;1.90;;;7.70;74.30;;;;;;5361221;26;110566;-48
2024/04/17 04:24:41;;;;;;;3.88;2.75;;;7.80;74.50;;;;;;5362060;26;112519;-48
2024/04/17 04:27:09;;;;;;;3.15;1.95;;;7.40;75.30;;;;;;5361747;26;110413;-48
2024/04/17 04:29:35;;;;;;;4.55;1.70;;;7.40;75.20;;;;;;5362193;26;110627;-48
2024/04/17 04:32:01;;;;;;;2.03;1.83;;;7.40;74.90;;;;;;5365509;26;110563;-48
2024/04/17 04:34:27;;;;;;;2.08;1.98;;;7.70;74.70;;;;;;5365501;26;111157;-48
2024/04/17 04:36:52;;;;;;;1.95;1.85;;;7.40;74.70;;;;;;5365216;26;110806;-48
2024/04/17 04:39:18;;;;;;;2.92;2.00;;;7.50;75.20;;;;;;5366275;26;110648;-48
2024/04/17 04:41:44;;;;;;;2.30;2.10;;;7.50;75.10;;;;;;5366295;26;110697;-48
2024/04/17 04:44:09;;;;;;;3.63;2.90;;;7.50;75.20;;;;;;5365244;26;111661;-48
2024/04/17 04:46:35;;;;;;;2.20;2.10;;;7.40;75.60;;;;;;5364798;26;110643;-48
2024/04/17 04:49:01;;;;;;;4.88;2.20;;;7.40;75.90;;;;;;5366191;26;110546;-48
2024/04/17 04:51:26;;;;;;;3.38;1.95;;;7.40;76.00;;;;;;5366159;26;110489;-48
2024/04/17 04:53:52;;;;;;;2.63;2.42;;;7.40;76.00;;;;;;5364770;26;111153;-48
2024/04/17 04:56:17;;;;;;;3.72;2.80;;;7.50;76.20;;;;;;5365093;26;110772;-48
2024/04/17 04:58:44;;;;;;;3.45;3.15;;;7.50;76.10;;;;;;5365728;26;110909;-48
2024/04/17 05:01:09;;;;;;;2.80;2.60;;;7.40;76.30;;;;;;5366132;26;110497;-48
2024/04/17 05:03:35;;;;;;;3.00;2.80;;;7.60;76.30;;;;;;5364580;26;111135;-48
2024/04/17 05:06:01;;;;;;;2.67;2.47;;;7.60;76.70;;;;;;5364841;26;110495;-48
2024/04/17 05:08:26;;;;;;;2.90;2.67;;;7.70;76.30;;;;;;5365804;26;110414;-48
2024/04/17 05:10:52;;;;;;;2.83;2.50;;;7.60;76.80;;;;;;5365775;26;110713;-48
2024/04/17 05:13:18;;;;;;;6.70;2.90;;;7.80;76.90;;;;;;5364873;26;112579;-48
2024/04/17 05:15:43;;;;;;;3.20;2.90;;;7.90;76.40;;;;;;5364789;26;110466;-48
2024/04/17 05:18:09;;;;;;;10.23;6.65;;;7.90;76.10;;;;;;5365569;26;110623;-48
2024/04/17 05:20:34;;;;;;;17.55;9.57;;;7.80;76.30;;;;;;5365394;26;110557;-48
2024/04/17 05:23:00;;;;;;;7.43;5.40;;;8.10;75.70;;;;;;5364724;26;112392;-48
2024/04/17 05:25:26;;;;;;;3.67;3.25;;;8.40;75.10;;;;;;5364962;26;110879;-48
2024/04/17 05:27:52;;;;;;;2.90;2.70;;;8.40;75.20;;;;;;5365385;26;113564;-48
2024/04/17 05:30:18;;;;;;;3.95;3.03;;;8.60;74.30;;;;;;5365996;26;111044;-48
2024/04/17 05:32:46;;;;;;;5.60;3.00;;;8.70;74.30;;;;;;5364557;26;111191;-48
2024/04/17 05:35:12;;;;;;;4.18;2.70;;;8.80;74.10;;;;;;5364504;26;111704;-48
2024/04/17 05:37:38;;;;;;;3.55;2.83;;;8.90;73.10;;;;;;5365756;26;110791;-48
2024/04/17 05:40:05;;;;;;;4.88;3.40;;;8.80;72.90;;;;;;5365487;26;110408;-48
2024/04/17 05:42:30;;;;;;;3.40;3.10;;;9.00;72.80;;;;;;5363884;26;111127;-49
2024/04/17 05:44:56;;;;;;;3.78;3.20;;;9.10;72.40;;;;;;5364200;26;111989;-48
2024/04/17 05:47:22;;;;;;;5.38;3.40;;;9.30;72.50;;;;;;5365439;26;110535;-48
2024/04/17 05:49:47;;;;;;;7.18;3.83;;;9.20;72.90;;;;;;5365768;26;110922;-48
2024/04/17 05:52:13;;;;;;;5.43;3.88;;;9.40;72.90;;;;;;5364284;26;111446;-49
2024/04/17 05:54:39;;;;;;;5.28;3.65;;;9.40;72.70;;;;;;5365009;26;110727;-48
2024/04/17 05:57:04;;;;;;;4.32;3.35;;;9.50;72.30;;;;;;5365248;26;110769;-48
2024/04/17 05:59:30;;;;;;;4.30;3.60;;;9.60;71.70;;;;;;5365516;26;110824;-48
2024/04/17 06:01:57;;;;;;;4.15;3.50;;;9.80;71.90;;;;;;5364328;26;111136;-49
2024/04/17 06:04:23;;;;;;;4.45;4.03;;;9.80;71.10;;;;;;5362223;26;111807;-48
2024/04/17 06:06:49;;;;;;;5.40;3.70;;;9.70;71.40;;;;;;5362951;26;111070;-49
2024/04/17 06:09:15;;;;;;;4.88;3.70;;;9.60;72.70;;;;;;5364949;26;110779;-48
2024/04/17 06:11:41;;;;;;;5.97;4.00;;;9.70;72.10;;;;;;5364211;26;112354;-48
2024/04/17 06:14:06;;;;;;;5.00;3.88;;;9.70;72.10;;;;;;5364031;26;111515;-48
2024/04/17 06:16:32;;;;;;;5.78;3.70;;;9.80;71.90;;;;;;5365190;26;110926;-49
2024/04/17 06:18:57;;;;;;;6.90;3.83;;;9.90;71.50;;;;;;5365169;26;110629;-49
2024/04/17 06:21:23;;;;;;;4.57;3.20;;;10.00;71.20;;;;;;5364017;26;111186;-49
2024/04/17 06:23:49;;;;;;;7.28;2.85;;;10.00;71.70;;;;;;5363672;26;111435;-49
2024/04/17 06:26:15;;;;;;;4.40;2.50;;;10.10;70.80;;;;;;5364770;26;111104;-49
2024/04/17 06:28:40;;;;;;;3.08;2.70;;;10.20;69.70;;;;;;5365059;26;111267;-48
2024/04/17 06:31:06;;;;;;;2.70;2.50;;;10.00;69.50;;;;;;5363919;26;111534;-49
2024/04/17 06:33:32;;;;;;;3.25;2.70;;;10.10;69.10;;;;;;5363518;26;110994;-49
2024/04/17 06:35:58;;;;;;;2.90;2.47;;;10.10;68.50;;;;;;5363186;26;110839;-50
2024/04/17 06:38:24;;;;;;;6.65;2.28;;;10.30;68.70;;;;;;5364965;26;111083;-49
2024/04/17 06:40:49;;;;;;;4.18;2.42;;;10.50;67.00;;;;;;5362112;26;114127;-49
2024/04/17 06:43:15;;;;;;;2.75;2.55;;;10.50;67.80;;;;;;5363855;26;110789;-49
2024/04/17 06:45:41;;;;;;;3.60;2.42;;;10.40;67.20;;;;;;5364933;26;110655;-49
2024/04/17 06:48:08;;;;;;;4.65;2.78;;;10.80;66.00;;;;;;5365328;26;110459;-57
2024/04/17 06:50:34;;;;;;;3.13;2.35;;;11.00;65.90;;;;;;5364004;26;112367;-57
2024/04/17 06:53:00;;;;;;;7.13;3.08;;;11.00;66.00;;;;;;5362658;26;110906;-57
2024/04/17 06:55:26;;;;;;;5.68;2.70;;;11.10;65.90;;;;;;5365213;26;110493;-57
2024/04/17 06:57:51;;;;;;;4.13;2.60;;;11.40;66.90;;;;;;5364802;26;110637;-57
2024/04/17 07:00:17;;;;;;;6.15;2.90;;;11.10;66.80;;;;;;5363844;26;110792;-57
2024/04/17 07:02:43;;;;;;;6.28;2.78;;;11.00;68.20;;;;;;5364360;26;111897;-57
2024/04/17 07:05:09;;;;;;;5.60;2.78;;;11.20;67.10;;;;;;5365101;26;110529;-57
2024/04/17 07:07:34;;;;;;;3.90;2.83;;;11.30;66.10;;;;;;5365094;26;110891;-57
2024/04/17 07:10:00;;;;;;;6.45;3.60;;;11.20;67.00;;;;;;5364080;26;111143;-57
2024/04/17 07:12:25;;;;;;;3.38;2.65;;;11.40;68.20;;;;;;5364124;26;110727;-57
2024/04/17 07:14:51;;;;;;;4.88;3.30;;;11.60;65.40;;;;;;5365440;26;110493;-57
2024/04/17 07:17:17;;;;;;;4.20;3.28;;;11.70;65.50;;;;;;5364811;26;110592;-57
2024/04/17 07:19:42;;;;;;;6.03;3.10;;;11.90;66.00;;;;;;5363685;26;112720;-57
2024/04/17 07:22:08;;;;;;;3.15;2.50;;;11.90;65.10;;;;;;5363530;26;110859;-57
2024/04/17 07:24:33;;;;;;;5.57;2.85;;;12.10;62.10;;;;;;5364372;26;110965;-57
2024/04/17 07:26:59;;;;;;;2.85;2.60;;;12.20;64.00;;;;;;5364224;26;111091;-62
2024/04/17 07:29:25;;;;;;;4.25;2.88;;;11.90;62.90;;;;;;5361102;26;114519;-62
2024/04/17 07:31:51;;;;;;;8.82;2.80;;;12.30;63.90;;;;;;5362657;26;111656;-62
2024/04/17 07:34:16;;;;;;;3.92;2.47;;;12.90;63.40;;;;;;5363965;26;110493;-57
2024/04/17 07:36:42;;;;;;;3.33;2.58;;;13.20;60.30;;;;;;5363822;26;110859;-58
2024/04/17 07:39:10;;;;;;;3.35;2.75;;;12.90;60.50;;;;;;5362961;26;111117;-58
2024/04/17 07:41:36;;;;;;;3.40;1.98;;;12.80;60.10;;;;;;5362592;26;111946;-59
2024/04/17 07:44:02;;;;;;;3.97;2.55;;;13.30;59.30;;;;;;5363572;26;110648;-59
2024/04/17 07:46:28;;;;;;;2.95;1.92;;;13.30;58.40;;;;;;5361978;26;110615;-59
2024/04/17 07:48:54;;;;;;;3.30;1.40;;;13.30;58.10;;;;;;5362452;26;111088;-59
2024/04/17 07:51:20;;;;;;;2.28;1.25;;;13.10;59.00;;;;;;5362622;26;110418;-59
2024/04/17 07:53:46;;;;;;;5.78;1.10;;;12.90;57.30;;;;;;5363113;26;110615;-59
2024/04/17 07:56:12;;;;;;;3.55;1.10;;;13.10;57.40;;;;;;5364211;26;110677;-59
2024/04/17 07:58:37;;;;;;;2.00;0.98;;;13.40;57.20;;;;;;5362133;26;111138;-58
2024/04/17 08:01:03;;;;;;;3.08;1.10;;;14.20;57.40;;;;;;5362321;26;111568;-58
2024/04/17 08:03:29;;;;;;;2.15;1.00;;;14.70;56.50;;;;;;5363394;26;110581;-58
2024/04/17 08:05:54;;;;;;;2.70;1.17;;;14.40;54.60;;;;;;5365951;26;111090;-57
2024/04/17 08:08:20;;;;;;;3.05;0.95;;;14.20;56.10;;;;;;5365519;26;111183;-57
2024/04/17 08:10:46;;;;;;;3.22;1.30;;;13.90;57.10;;;;;;5365082;26;110956;-57
2024/04/17 08:13:11;;;;;;;3.28;1.25;;;14.10;56.10;;;;;;5366304;26;110712;-56
2024/04/17 08:15:41;;;;;;;2.63;1.02;;;13.90;56.40;;;;;;5366549;26;110788;-56
2024/04/17 08:18:06;;;;;;;4.72;1.15;;;14.20;56.70;;;;;;5365732;26;111098;-49
2024/04/17 08:20:32;;;;;;;2.70;0.93;;;14.80;55.20;;;;;;5366042;26;111177;-48
2024/04/17 08:22:58;;;;;;;3.80;1.20;;;14.10;55.10;;;;;;5366564;26;110532;-49
2024/04/17 08:25:23;;;;;;;2.80;1.13;;;14.40;55.20;;;;;;5365613;26;111013;-48
2024/04/17 08:27:49;;;;;;;2.80;1.20;;;14.60;55.20;;;;;;5365569;26;113087;-48
2024/04/17 08:30:15;;;;;;;2.20;0.90;;;14.90;54.10;;;;;;5365927;26;112190;-49
2024/04/17 08:32:42;;;;;;;3.75;1.35;;;15.20;54.10;;;;;;5367349;26;110395;-49
2024/04/17 08:35:08;;;;;;;2.78;1.40;;;15.40;53.90;;;;;;5367147;26;110493;-48
2024/04/17 08:37:35;;;;;;;2.55;1.20;;;15.00;53.80;;;;;;5364502;26;112293;-48
2024/04/17 08:40:01;;;;;;;3.45;1.50;;;15.20;53.60;;;;;;5365923;26;110433;-48
2024/04/17 08:42:31;;;;;;;2.97;1.65;;;15.80;53.20;;;;;;5367230;26;110708;-49
2024/04/17 08:44:59;;;;;;;3.95;1.65;;;15.80;51.70;;;;;;5367199;26;110673;-48
2024/04/17 08:47:27;;;;;;;4.50;1.30;;;15.90;52.10;;;;;;5365969;26;111129;-48
2024/04/17 08:49:54;;;;;;;3.70;1.27;;;16.10;52.40;;;;;;5366233;26;111707;-49
2024/04/17 08:52:21;;;;;;;3.85;1.30;;;16.40;52.10;;;;;;5366630;26;110811;-49
2024/04/17 08:54:49;;;;;;;5.28;1.65;;;16.70;50.60;;;;;;5367549;26;110496;-48
2024/04/17 08:57:15;;;;;;;2.55;1.27;;;16.40;50.30;;;;;;5363599;26;112380;-49
2024/04/17 08:59:41;;;;;;;2.88;1.48;;;16.10;51.10;;;;;;5365652;26;110505;-49
2024/04/17 09:02:13;;;;;;;4.70;1.52;;;15.90;51.50;;;;;;5366708;26;110938;-48
2024/04/17 09:04:42;;;;;;;4.25;1.77;;;16.30;51.30;;;;;;5367077;26;110725;-48
2024/04/17 09:07:09;;;;;;;4.53;1.70;;;16.00;51.00;;;;;;5365460;26;112404;-48
2024/04/17 09:09:37;;;;;;;4.85;1.98;;;16.20;51.50;;;;;;5365812;26;110749;-50
2024/04/17 09:12:05;;;;;;;4.78;2.05;;;16.20;51.00;;;;;;5366728;26;110485;-49
2024/04/17 09:14:31;;;;;;;2.15;1.52;;;16.70;50.80;;;;;;5366921;26;110794;-49
2024/04/17 09:16:57;;;;;;;5.32;2.03;;;16.60;50.30;;;;;;5362990;26;114246;-48
2024/04/17 09:19:23;;;;;;;4.60;2.10;;;16.80;50.20;;;;;;5365335;26;110579;-48
2024/04/17 09:21:49;;;;;;;4.32;2.25;;;16.90;50.10;;;;;;5366646;26;111052;-48
2024/04/17 09:24:15;;;;;;;3.13;1.90;;;16.90;49.40;;;;;;5366330;26;110828;-48
2024/04/17 09:26:41;;;;;;;3.38;2.20;;;16.50;50.80;;;;;;5365553;26;111032;-48
2024/04/17 09:29:06;;;;;;;4.45;2.35;;;16.10;52.00;;;;;;5365602;26;110537;-49
2024/04/17 09:31:32;;;;;;;4.57;2.53;;;16.90;49.80;;;;;;5366307;26;110555;-48
2024/04/17 09:34:00;;;;;;;4.85;2.60;;;16.90;50.50;;;;;;5366738;26;110546;-49
2024/04/17 09:36:27;;;;;;;8.70;2.30;;;17.00;50.90;;;;;;5365166;26;112173;-49
2024/04/17 09:38:53;;;;;;;3.47;2.20;;;17.20;49.20;;;;;;5365564;26;110739;-48
2024/04/17 09:41:19;;;;;;;4.70;2.15;;;17.50;48.70;;;;;;5366577;26;110840;-49
2024/04/17 09:43:49;;;;;;;5.15;2.13;;;17.60;49.70;;;;;;5366680;26;110613;-49
2024/04/17 09:46:15;;;;;;;5.97;2.50;;;17.40;49.10;;;;;;5365684;26;112885;-48
2024/04/17 09:48:41;;;;;;;3.63;2.42;;;17.10;50.10;;;;;;5364861;26;112267;-49
2024/04/17 09:51:16;;;;;;;4.55;2.33;;;17.30;49.50;;;;;;5366013;26;110556;-49
2024/04/17 09:53:59;;;;;;;3.78;2.00;;;17.90;50.30;;;;;;5366250;26;110595;-49
2024/04/17 09:56:26;;;;;;;4.18;2.20;;;18.80;48.20;;;;;;5365915;26;112554;-48
2024/04/17 09:58:53;;;;;;;6.03;2.22;;;19.10;46.90;;;;;;5365185;26;111564;-49
2024/04/17 10:01:21;;;;;;;7.03;2.58;;;19.50;47.10;;;;;;5366222;26;110538;-49
2024/04/17 10:03:47;;;;;;;5.32;2.60;;;19.10;45.70;;;;;;5366492;26;110522;-49
2024/04/17 10:06:14;;;;;;;3.67;2.38;;;18.30;47.70;;;;;;5365510;26;112453;-49
2024/04/17 10:08:42;;;;;;;6.85;4.47;;;18.10;48.30;;;;;;5365214;26;111710;-49
2024/04/17 10:11:09;;;;;;;5.45;2.78;;;18.90;47.50;;;;;;5366371;26;110621;-49
2024/04/17 10:13:35;;;;;;;6.32;2.63;;;18.90;46.60;;;;;;5366251;26;110486;-49
2024/04/17 10:16:01;;;;;;;10.10;2.75;;;19.50;45.60;;;;;;5365018;26;112474;-48
2024/04/17 10:18:27;;;;;;;11.00;2.78;;;19.50;45.70;;;;;;5365075;26;110579;-49
2024/04/17 10:20:56;;;;;;;7.15;2.30;;;19.30;46.20;;;;;;5365783;26;110811;-49
2024/04/17 10:23:26;;;;;;;4.10;2.30;;;20.00;45.30;;;;;;5366393;26;110863;-49
2024/04/17 10:25:56;;;;;;;6.78;2.28;;;20.50;44.50;;;;;;5365015;26;111077;-49
2024/04/17 10:28:24;;;;;;;6.07;2.58;;;22.10;41.80;;;;;;5364811;26;111611;-49
2024/04/17 10:30:51;;;;;;;6.47;2.67;;;25.60;36.00;;;;;;5366303;26;110998;-50
2024/04/17 10:33:31;;;;;;;5.20;2.80;;;24.90;36.00;;;;;;5366026;26;110474;-49
2024/04/17 10:35:58;;;;;;;19.85;4.20;;;23.90;37.60;;;;;;5364853;26;112634;-53
2024/04/17 10:38:29;;;;;;;6.72;2.40;;;23.40;39.70;;;;;;5364616;26;111646;-50
2024/04/17 10:40:56;;;;;;;5.68;2.13;;;23.20;39.20;;;;;;5365655;26;110452;-49
2024/04/17 10:43:26;;;;;;;4.05;2.38;;;21.90;40.90;;;;;;5365903;26;110541;-49
2024/04/17 10:45:56;;;;;;;7.95;2.80;;;21.50;42.00;;;;;;5364803;26;112381;-49
2024/04/17 10:48:21;;;;;;;7.63;3.13;;;20.60;43.80;;;;;;5364744;26;111643;-50
2024/04/17 10:50:47;;;;;;;7.63;3.05;;;20.30;44.10;;;;;;5365926;26;110408;-50
2024/04/17 10:53:14;;;;;;;6.15;2.25;;;20.90;43.60;;;;;;5365846;26;111067;-49
2024/04/17 10:55:40;;;;;;;5.72;2.60;;;21.40;43.80;;;;;;5365102;26;111240;-52
2024/04/17 10:58:09;;;;;;;7.95;2.50;;;20.80;43.70;;;;;;5365629;26;110595;-49
2024/04/17 11:00:35;;;;;;;5.45;2.10;;;20.80;42.60;;;;;;5365316;26;111012;-49
2024/04/17 11:03:00;;;;;;;4.78;2.20;;;21.30;43.20;;;;;;5365779;26;110488;-50
2024/04/17 11:05:26;;;;;;;5.00;1.88;;;21.30;41.30;;;;;;5364371;26;112349;-50
2024/04/17 11:07:55;;;;;;;9.48;1.88;;;21.90;41.60;;;;;;5364536;26;111564;-49
2024/04/17 11:10:21;;;;;;;5.07;1.90;;;21.90;41.20;;;;;;5365416;26;110885;-49
2024/04/17 11:12:47;;;;;;;9.80;2.35;;;21.80;41.90;;;;;;5365521;26;110787;-50
2024/04/17 11:15:13;;;;;;;4.70;2.38;;;22.20;42.10;;;;;;5364602;26;112239;-49
2024/04/17 11:17:40;;;;;;;6.20;2.30;;;22.80;39.70;;;;;;5364090;26;111504;-49
2024/04/17 11:20:08;;;;;;;7.72;2.55;;;22.80;41.10;;;;;;5365255;26;110963;-49
2024/04/17 11:22:34;;;;;;;4.22;2.30;;;22.80;39.90;;;;;;5365323;26;110988;-49
2024/04/17 11:25:03;;;;;;;8.23;2.53;;;23.20;38.90;;;;;;5364242;26;113530;-49
2024/04/17 11:27:28;;;;;;;5.95;2.50;;;21.40;43.40;;;;;;5363568;26;112632;-49
2024/04/17 11:29:54;;;;;;;7.15;2.40;;;21.60;43.10;;;;;;5365003;26;111015;-49
2024/04/17 11:32:20;;;;;;;6.88;2.47;;;22.30;40.70;;;;;;5365160;26;110890;-49
2024/04/17 11:34:45;;;;;;;6.93;2.78;;;22.80;40.60;;;;;;5363669;26;111113;-49
2024/04/17 11:37:13;;;;;;;6.65;3.20;;;22.70;40.80;;;;;;5364001;26;110714;-49
2024/04/17 11:39:39;;;;;;;10.30;3.42;;;21.90;42.20;;;;;;5365380;26;110795;-49
2024/04/17 11:42:07;;;;;;;9.30;3.20;;;22.10;42.70;;;;;;5367803;26;110568;-49
2024/04/17 11:44:40;;;;;;;8.02;2.90;;;22.40;41.80;;;;;;5366989;26;111201;-49
2024/04/17 11:47:11;;;;;;;9.65;4.30;;;23.30;40.50;;;;;;5366542;26;110757;-50
2024/04/17 11:49:36;;;;;;;6.40;3.63;;;24.30;38.90;;;;;;5367531;26;110707;-50
2024/04/17 11:52:05;;;;;;;8.00;2.90;;;24.20;38.70;;;;;;5367532;26;110561;-49
2024/04/17 11:54:30;;;;;;;6.90;3.53;;;24.70;38.30;;;;;;5366854;26;112091;-47
2024/04/17 11:56:56;;;;;;;7.30;3.33;;;25.70;36.40;;;;;;5439204;20;110816;-52
2024/04/17 11:59:22;;;;;;;5.97;3.00;;;24.40;38.40;;;;;;5406687;25;110877;-53
2024/04/17 12:01:48;;;;;;;6.85;3.53;;;23.00;40.80;;;;;;5439392;25;111477;-54
2024/04/17 12:04:13;;;;;;;8.07;3.40;;;23.60;40.30;;;;;;5437660;25;111172;-51
2024/04/17 12:06:39;;;;;;;6.03;2.90;;;23.90;39.40;;;;;;5438013;25;111868;-52
2024/04/17 12:09:05;;;;;;;9.45;3.28;;;23.50;39.70;;;;;;5439215;25;111276;-51
2024/04/17 12:11:31;;;;;;;6.82;2.83;;;22.80;41.10;;;;;;5439184;25;110609;-53
2024/04/17 12:13:56;;;;;;;7.85;3.05;;;22.40;41.10;;;;;;5437720;25;111057;-53
2024/04/17 12:16:22;;;;;;;11.25;3.42;;;22.20;41.50;;;;;;5437658;25;110956;-50
2024/04/17 12:18:48;;;;;;;9.68;2.88;;;22.40;41.40;;;;;;5438714;25;110615;-51
2024/04/17 12:21:13;;;;;;;9.35;3.03;;;22.60;41.20;;;;;;5438905;25;110820;-51
2024/04/17 12:23:39;;;;;;;4.90;2.83;;;23.20;40.30;;;;;;5405687;25;111159;-51
2024/04/17 12:28:49;;;;;;;5.25;2.25;;;23.00;39.90;;;;;;5424414;25;110428;-51
2024/04/17 12:31:15;;;;;;;7.90;3.13;;;22.30;40.90;;;;;;5427954;25;110613;-53
2024/04/17 12:33:41;;;;;;;6.05;2.47;;;21.70;41.80;;;;;;5437681;25;111417;-53
2024/04/17 12:36:08;;;;;;;4.55;2.25;;;21.20;42.40;;;;;;5437858;25;110792;-51
2024/04/17 12:38:34;;;;;;;8.45;3.35;;;20.90;43.60;;;;;;5438407;25;110453;-52